83IL weather

Oltman-Shuck Airport
Minonk, Illinois, United States

Public forecast

Using degrees Fahrenheit for public forecast. Weather courtesy of forecast.io.

Closest aviation weather report (METAR) to Oltman-Shuck Airport

Closest report is Marshall County Airport, 14.9 nm (27.6 km) WNW. Retrieved 2019/12/07 13:35 UTC (23 minutes ago):

KC75 071335Z AUTO 17003KT 10SM OVC095 M03/M04 A3037 RMK AO2 T10281043

Closest aviation forecast (TAF) to Oltman-Shuck Airport

Closest forecast is Central Illinois Regional Airport at Bloomington-Normal, 26.4 nm (48.9 km) SSE. Retrieved 2019/12/07 12:30 UTC (1 hour ago):

TAF KBMI 071128Z 0712/0812 17007KT P6SM SCT090 FM071600 18010KT P6SM SCT250 FM081000 18015KT P6SM BKN020